createdAt,value
2024-04-17T00:01:38.616Z,97276.38
2024-04-17T00:05:41.073Z,97277.72
2024-04-17T00:09:43.510Z,97269.38
2024-04-17T00:13:45.874Z,97266.88
2024-04-17T00:17:48.263Z,97266.44
2024-04-17T00:21:50.848Z,97267.22
2024-04-17T00:25:53.490Z,97259.31
2024-04-17T00:29:56.010Z,97261.56
2024-04-17T00:33:59.284Z,97259.03
2024-04-17T00:38:01.695Z,97263.88
2024-04-17T00:42:04.304Z,97261.91
2024-04-17T00:46:09.862Z,97261.41
2024-04-17T00:50:13.087Z,97264.28
2024-04-17T00:54:15.856Z,97263.34
2024-04-17T00:58:19.394Z,97264.56
2024-04-17T01:02:21.942Z,97261.47
2024-04-17T01:06:24.504Z,97260.22
2024-04-17T01:10:27.207Z,97253.53
2024-04-17T01:14:32.478Z,97242.69
2024-04-17T01:18:42.311Z,97241.66
2024-04-17T01:22:50.331Z,97243.38
2024-04-17T01:26:57.591Z,97256.97
2024-04-17T01:31:09.472Z,97250.97
2024-04-17T01:35:17.483Z,97248.59
2024-04-17T01:39:25.324Z,97240.63
2024-04-17T01:43:33.314Z,97240.31
2024-04-17T01:47:41.345Z,97236.25
2024-04-17T01:51:48.245Z,97229.22
2024-04-17T01:55:56.522Z,97241.00
2024-04-17T02:00:04.115Z,97250.53
2024-04-17T02:04:16.590Z,97249.50
2024-04-17T02:08:23.697Z,97246.53
2024-04-17T02:12:31.988Z,97234.97
2024-04-17T02:16:39.405Z,97239.22
2024-04-17T02:20:46.153Z,97243.81
2024-04-17T02:24:51.961Z,97237.78
2024-04-17T02:28:59.805Z,97239.72
2024-04-17T02:33:07.757Z,97242.94
2024-04-17T02:37:15.877Z,97238.81
2024-04-17T02:41:19.669Z,97246.81
2024-04-17T02:45:22.068Z,97247.69
2024-04-17T02:49:24.625Z,97231.81
2024-04-17T02:53:27.050Z,97227.38
2024-04-17T02:57:29.968Z,97228.16
2024-04-17T03:01:33.332Z,97237.63
2024-04-17T03:05:36.092Z,97242.94
2024-04-17T03:09:38.583Z,97246.91
2024-04-17T03:13:40.990Z,97261.63
2024-04-17T03:17:43.407Z,97270.94
2024-04-17T03:21:45.762Z,97280.78
2024-04-17T03:25:58.054Z,97282.28
2024-04-17T03:30:01.421Z,97280.91
2024-04-17T03:34:03.905Z,97285.44
2024-04-17T03:38:06.308Z,97280.25
2024-04-17T03:42:08.828Z,97284.06
2024-04-17T03:46:11.168Z,97278.78
2024-04-17T03:50:13.527Z,97274.16
2024-04-17T03:54:18.857Z,97280.16
2024-04-17T03:58:21.690Z,97274.91
2024-04-17T04:02:24.921Z,97275.16
2024-04-17T04:06:28.061Z,97273.38
2024-04-17T04:10:30.457Z,97281.72
2024-04-17T04:14:33.596Z,97285.22
2024-04-17T04:18:35.971Z,97292.91
2024-04-17T04:22:38.369Z,97296.56
2024-04-17T04:26:40.865Z,97288.66
2024-04-17T04:30:43.207Z,97289.47
2024-04-17T04:34:45.729Z,97295.72
2024-04-17T04:38:48.213Z,97291.34
2024-04-17T04:42:50.574Z,97294.72
2024-04-17T04:46:54.810Z,97298.13
2024-04-17T04:50:57.222Z,97304.00
2024-04-17T04:54:59.577Z,97290.44
2024-04-17T04:59:02.135Z,97289.81
2024-04-17T05:03:04.928Z,97298.25
2024-04-17T05:07:07.530Z,97302.50
2024-04-17T05:11:12.042Z,97291.88
2024-04-17T05:15:14.444Z,97286.00
2024-04-17T05:19:16.796Z,97291.31
2024-04-17T05:23:19.188Z,97303.72
2024-04-17T05:27:21.569Z,97311.75
2024-04-17T05:31:24.002Z,97313.28
2024-04-17T05:35:26.770Z,97330.50
2024-04-17T05:39:32.300Z,97343.59
2024-04-17T05:43:34.624Z,97345.50
2024-04-17T05:47:37.667Z,97351.28
2024-04-17T05:51:40.072Z,97360.69
2024-04-17T05:55:42.574Z,97353.19
2024-04-17T05:59:45.002Z,97345.34
2024-04-17T06:03:47.439Z,97354.13
2024-04-17T06:07:49.988Z,97351.47
2024-04-17T06:11:52.363Z,97344.78
2024-04-17T06:15:54.791Z,97354.47
2024-04-17T06:19:57.351Z,97345.28
2024-04-17T06:23:59.859Z,97347.94
2024-04-17T06:28:02.234Z,97348.41
2024-04-17T06:32:05.028Z,97348.03
2024-04-17T06:36:08.064Z,97350.41
2024-04-17T06:40:10.744Z,97345.56
2024-04-17T06:44:17.006Z,97352.38
2024-04-17T06:48:22.488Z,97350.88
2024-04-17T06:52:27.042Z,97344.19
2024-04-17T06:56:29.875Z,97343.34
2024-04-17T07:00:34.226Z,97334.28
2024-04-17T07:04:36.925Z,97338.50
2024-04-17T07:08:39.610Z,97339.63
2024-04-17T07:12:43.012Z,97333.69
2024-04-17T07:16:45.368Z,97336.72
2024-04-17T07:20:50.378Z,97338.59
2024-04-17T07:24:52.740Z,97340.00
2024-04-17T07:28:55.311Z,97332.97
2024-04-17T07:32:57.840Z,97344.84
2024-04-17T07:37:00.312Z,97334.34
2024-04-17T07:41:02.855Z,97331.63
2024-04-17T07:45:05.956Z,97331.13
2024-04-17T07:49:08.465Z,97321.78
2024-04-17T07:53:10.787Z,97321.25
2024-04-17T07:57:13.100Z,97319.59
2024-04-17T08:01:17.873Z,97319.66
2024-04-17T08:05:20.414Z,97315.03
2024-04-17T08:09:23.042Z,97313.69
2024-04-17T08:13:25.581Z,97310.38
2024-04-17T08:17:28.114Z,97313.53
2024-04-17T08:21:30.576Z,97319.38
2024-04-17T08:25:33.169Z,97312.44
2024-04-17T08:29:35.474Z,97316.88
2024-04-17T08:33:37.859Z,97322.66
2024-04-17T08:37:40.319Z,97324.38
2024-04-17T08:41:49.633Z,97327.00
2024-04-17T08:45:56.311Z,97330.63
2024-04-17T08:50:00.573Z,97320.50
2024-04-17T08:54:05.149Z,97328.81
2024-04-17T08:58:08.600Z,97324.78
2024-04-17T09:02:15.352Z,97323.97
2024-04-17T09:06:18.366Z,97326.31
2024-04-17T09:10:21.170Z,97326.13
2024-04-17T09:14:23.535Z,97332.53
2024-04-17T09:18:26.912Z,97320.22
2024-04-17T09:22:29.540Z,97326.47
2024-04-17T09:26:31.927Z,97321.81
2024-04-17T09:30:34.268Z,97324.72
2024-04-17T09:34:36.602Z,97309.03
2024-04-17T09:38:39.715Z,97314.91
2024-04-17T09:42:44.869Z,97309.63
2024-04-17T09:46:55.670Z,97305.16
2024-04-17T09:51:04.170Z,97304.75
2024-04-17T09:55:10.327Z,97298.56
2024-04-17T09:59:13.128Z,97294.31
2024-04-17T10:03:16.883Z,97294.34
2024-04-17T10:07:20.845Z,97286.63
2024-04-17T10:11:27.963Z,97280.84
2024-04-17T10:15:30.397Z,97286.88
2024-04-17T10:19:32.760Z,97283.38
2024-04-17T10:23:35.083Z,97289.47
2024-04-17T10:27:37.736Z,97289.81
2024-04-17T10:31:40.068Z,97295.53
2024-04-17T10:35:52.914Z,97285.66
2024-04-17T10:39:55.547Z,97282.19
2024-04-17T10:43:58.403Z,97282.22
2024-04-17T10:48:04.060Z,97274.41
2024-04-17T10:52:06.866Z,97284.25
2024-04-17T10:56:11.951Z,97292.47
2024-04-17T11:00:15.806Z,97290.72
2024-04-17T11:04:18.292Z,97302.00
2024-04-17T11:08:21.361Z,97321.22
2024-04-17T11:12:24.044Z,97334.31
2024-04-17T11:16:26.368Z,97336.53
2024-04-17T11:20:28.777Z,97343.66
2024-04-17T11:24:32.361Z,97349.97
2024-04-17T11:28:35.011Z,97348.13
2024-04-17T11:32:37.511Z,97364.75
2024-04-17T11:36:39.991Z,97385.03
2024-04-17T11:40:46.084Z,97389.56
2024-04-17T11:44:48.462Z,97409.75
2024-04-17T11:48:50.865Z,97418.53
2024-04-17T11:52:53.447Z,97412.72
2024-04-17T11:56:55.998Z,97398.31
2024-04-17T12:00:58.921Z,97374.41
2024-04-17T12:05:01.916Z,97354.75
2024-04-17T12:09:04.438Z,97359.41
2024-04-17T12:13:06.866Z,97360.22
2024-04-17T12:17:09.796Z,97355.00
2024-04-17T12:21:12.123Z,97350.81
2024-04-17T12:25:33.124Z,97354.78
2024-04-17T12:29:35.495Z,97357.03
2024-04-17T12:33:37.795Z,97361.44
2024-04-17T12:37:41.249Z,97364.59
2024-04-17T12:41:43.731Z,97370.72
2024-04-17T12:45:46.140Z,97382.69
2024-04-17T12:49:48.602Z,97394.16
2024-04-17T12:53:50.968Z,97406.09
2024-04-17T12:57:53.721Z,97413.34
2024-04-17T13:01:56.218Z,97420.47
2024-04-17T13:06:03.128Z,97439.44
2024-04-17T13:10:06.524Z,97441.09
2024-04-17T13:14:09.196Z,97455.19
2024-04-17T13:18:11.608Z,97495.81
2024-04-17T13:22:14.064Z,97506.88
2024-04-17T13:26:16.447Z,97514.47
2024-04-17T13:30:18.975Z,97517.81
2024-04-17T13:34:21.841Z,97514.44
2024-04-17T13:38:26.266Z,97504.88
2024-04-17T13:42:28.556Z,97508.59
2024-04-17T13:46:30.970Z,97479.97
2024-04-17T13:50:33.288Z,97461.88
2024-04-17T13:54:35.864Z,97410.94
2024-04-17T13:58:38.403Z,97425.84
2024-04-17T14:02:41.009Z,97434.69
2024-04-17T14:06:43.652Z,97448.25
2024-04-17T14:10:46.127Z,97440.00
2024-04-17T14:14:52.448Z,97428.44
2024-04-17T14:18:55.954Z,97426.06
2024-04-17T14:22:58.428Z,97425.13
2024-04-17T14:27:00.917Z,97414.91
2024-04-17T14:31:05.122Z,97398.78
2024-04-17T14:35:08.064Z,97394.22
2024-04-17T14:39:10.894Z,97405.22
2024-04-17T14:43:13.598Z,97414.03
2024-04-17T14:47:16.045Z,97416.75
2024-04-17T14:51:19.701Z,97417.84
2024-04-17T14:55:22.095Z,97419.41
2024-04-17T14:59:24.485Z,97417.50
2024-04-17T15:03:29.356Z,97415.81
2024-04-17T15:07:32.825Z,97411.19
2024-04-17T15:11:39.064Z,97420.84
2024-04-17T15:15:41.629Z,97423.69
2024-04-17T15:19:46.035Z,97429.34
2024-04-17T15:23:48.597Z,97426.97
2024-04-17T15:27:50.945Z,97417.50
2024-04-17T15:31:53.363Z,97432.34
2024-04-17T15:36:01.437Z,97419.56
2024-04-17T15:40:03.834Z,97424.28
2024-04-17T15:44:06.300Z,97420.41
2024-04-17T15:48:08.770Z,97433.28
2024-04-17T15:52:11.629Z,97438.56
2024-04-17T15:56:18.714Z,97428.16
2024-04-17T16:00:21.194Z,97417.09
2024-04-17T16:04:23.738Z,97412.84
2024-04-17T16:08:26.823Z,97413.53
2024-04-17T16:12:31.662Z,97412.13
2024-04-17T16:16:34.731Z,97421.78
2024-04-17T16:20:37.067Z,97413.06
2024-04-17T16:24:41.060Z,97412.53
2024-04-17T16:28:45.113Z,97412.81
2024-04-17T16:32:47.641Z,97402.13
2024-04-17T16:36:50.083Z,97403.66
2024-04-17T16:40:52.412Z,97404.13
2024-04-17T16:44:54.761Z,97394.75
2024-04-17T16:48:58.308Z,97391.06
2024-04-17T16:53:01.767Z,97381.81
2024-04-17T16:57:04.468Z,97394.59
2024-04-17T17:01:07.677Z,97404.63
2024-04-17T17:05:10.173Z,97404.91
2024-04-17T17:09:12.547Z,97414.78
2024-04-17T17:13:15.214Z,97411.28
2024-04-17T17:17:17.834Z,97420.00
2024-04-17T17:21:20.577Z,97406.03
2024-04-17T17:25:23.072Z,97414.34
2024-04-17T17:29:25.657Z,97408.22
2024-04-17T17:33:28.974Z,97414.56
2024-04-17T17:37:31.467Z,97429.41
2024-04-17T17:41:33.886Z,97425.53
2024-04-17T17:45:36.377Z,97443.50
2024-04-17T17:49:38.807Z,97444.28
2024-04-17T17:53:44.708Z,97452.53
2024-04-17T17:57:47.058Z,97460.50
2024-04-17T18:01:49.622Z,97467.91
2024-04-17T18:06:00.460Z,97476.34
2024-04-17T18:10:03.081Z,97482.44
2024-04-17T18:14:08.158Z,97479.03
2024-04-17T18:18:11.972Z,97489.41
2024-04-17T18:22:14.484Z,97489.25
2024-04-17T18:26:19.847Z,97492.34
2024-04-17T18:30:22.328Z,97503.38
2024-04-17T18:34:24.796Z,97510.47
2024-04-17T18:38:27.281Z,97515.00
2024-04-17T18:42:29.771Z,97524.72
2024-04-17T18:46:34.280Z,97535.09
2024-04-17T18:50:36.726Z,97552.13
2024-04-17T18:54:39.072Z,97568.19
2024-04-17T18:58:42.495Z,97576.81
2024-04-17T19:02:45.008Z,97574.81
2024-04-17T19:06:47.454Z,97591.31
2024-04-17T19:10:50.815Z,97593.03
2024-04-17T19:14:54.212Z,97591.63
2024-04-17T19:18:57.613Z,97587.09
2024-04-17T19:23:00.609Z,97598.09
2024-04-17T19:27:03.300Z,97598.69
2024-04-17T19:31:09.014Z,97606.16
2024-04-17T19:35:13.400Z,97619.00
2024-04-17T19:39:16.955Z,97615.13
2024-04-17T19:43:20.178Z,97611.47
2024-04-17T19:47:23.800Z,97603.13
2024-04-17T19:51:27.314Z,97614.50
2024-04-17T19:55:29.829Z,97625.09
2024-04-17T19:59:35.005Z,97636.78
2024-04-17T20:03:39.353Z,97639.00
2024-04-17T20:07:44.993Z,97635.53
2024-04-17T20:11:49.718Z,97630.19
2024-04-17T20:16:03.799Z,97630.09
2024-04-17T20:20:15.955Z,97632.75
2024-04-17T20:24:19.796Z,97638.91
2024-04-17T20:28:22.988Z,97632.72
2024-04-17T20:32:27.237Z,97638.44
2024-04-17T20:36:30.002Z,97623.88
2024-04-17T20:40:32.570Z,97620.88
2024-04-17T20:44:37.865Z,97623.81
2024-04-17T20:48:45.718Z,97623.31
2024-04-17T20:52:48.380Z,97609.00
2024-04-17T20:56:51.222Z,97606.34
2024-04-17T21:01:01.365Z,97601.59
2024-04-17T21:05:04.163Z,97603.47
2024-04-17T21:09:08.513Z,97605.63
2024-04-17T21:13:12.132Z,97615.66
2024-04-17T21:17:14.481Z,97624.38
2024-04-17T21:21:17.751Z,97626.56
2024-04-17T21:25:22.078Z,97627.88
2024-04-17T21:29:25.689Z,97624.09
2024-04-17T21:33:29.162Z,97615.78
2024-04-17T21:37:31.935Z,97623.69
2024-04-17T21:41:34.519Z,97617.06
2024-04-17T21:45:37.526Z,97623.75
2024-04-17T21:49:39.947Z,97619.72
2024-04-17T21:53:42.407Z,97619.53
2024-04-17T21:57:44.802Z,97615.44
2024-04-17T22:01:47.183Z,97612.50
2024-04-17T22:05:49.748Z,97620.13
2024-04-17T22:09:52.158Z,97615.88
2024-04-17T22:13:54.526Z,97615.31
2024-04-17T22:17:57.858Z,97613.47
2024-04-17T22:22:00.358Z,97622.63
2024-04-17T22:26:02.809Z,97628.75
2024-04-17T22:30:05.811Z,97628.22
2024-04-17T22:34:17.348Z,97631.66
2024-04-17T22:38:19.780Z,97637.94
2024-04-17T22:42:22.221Z,97630.47
2024-04-17T22:46:24.556Z,97636.81
2024-04-17T22:50:26.978Z,97637.31
2024-04-17T22:54:29.442Z,97640.16
2024-04-17T22:58:31.946Z,97650.59
2024-04-17T23:02:34.417Z,97656.69
2024-04-17T23:06:40.864Z,97657.56
2024-04-17T23:11:01.576Z,97660.75
2024-04-17T23:15:09.385Z,97663.16
2024-04-17T23:19:19.840Z,97670.53
2024-04-17T23:23:27.774Z,97667.22
2024-04-17T23:27:30.240Z,97664.56
2024-04-17T23:31:32.720Z,97657.06
2024-04-17T23:35:35.044Z,97658.59
2024-04-17T23:39:37.494Z,97644.44
2024-04-17T23:43:40.286Z,97642.06
2024-04-17T23:47:42.724Z,97640.47
2024-04-17T23:51:45.566Z,97610.59
2024-04-17T23:55:48.041Z,97600.69
2024-04-17T23:59:50.582Z,97563.03
